Elm Grove, Wisconsin
Current Conditions -  °F | °C
As of 1:45 PM on Saturday 25 Oct 2014 (Local Time) from KMWC Reporting Station
Clear Clear  
Wind Chill: 66°   Ceiling: Unl
Heat Index: 66°   Visibility: 10mi
Dew Point: 25°   Wind: 21mph
Humidity: 21%   Direction: 270°W
Pressure: 29.89"   Gusts: 26mph
Location:  43.05°N, 88.08°W
Report Text: KMWC 251845Z AUTO 27018G23KT 10SM SKC 19/M04 A2989
Loading
Personal Weather Stations






























Interactive Weather Map
Tropical Storm Tracking
New forecast layout! Learn more

10-Day Weather Forecast

Advertisements
Track Severe Weather on mobile